Chicago Bridge — H9NR — position and weather

sailwx.info

Track history (hours):
 
Tides and Currents Weather Stations Pressure Air Temp Water Temp Dewpoint Dewpoint Depression Visibility Wind Speed Wind Dir Waves Ship Positions

Chicago Bridge

Last reported at 2015-Aug-30 15:17 UTC. Time now 2015-Aug-30 16:00 UTC.
Position N 24°27' E 118°01'.

Length 279 m; draft 10 m.

Type: Ship (hazmat cat B). MMSI: 352018000.

Date/timePositionNaut miles runAvg speedWind from/ knotsBaromVisibWave heightAir tempDewpointWater temp
2015-Aug-30 15:17N 24°27' E 118°01'0 0.0
2015-Aug-30 10:05N 24°27' E 118°01'0 0.0
2015-Aug-30 06:23N 24°27' E 118°01'0 0.0
2015-Aug-30 03:29N 24°27' E 118°01'0 0.0
2015-Aug-29 21:23N 24°27' E 118°01'0 0.0
2015-Aug-29 12:25N 24°27' E 118°01'9 7.9
2015-Aug-29 11:19N 24°22' E 118°09'912.0
2015-Aug-29 10:31N 24°15' E 118°16'11 9.9
2015-Aug-29 09:25N 24°15' E 118°28'2512.4
2015-Aug-29 07:23N 24°17' E 118°55'44710.2
2015-Aug-27 11:32N 31°20' E 121°39'0 0.0
2015-Aug-27 10:32N 31°20' E 121°39'0 0.0
2015-Aug-27 09:32N 31°20' E 121°39'0 0.0
2015-Aug-27 08:32N 31°20' E 121°39'0 0.0
2015-Aug-27 07:32N 31°20' E 121°39'0 0.0
2015-Aug-27 06:32N 31°20' E 121°39'0 0.0
2015-Aug-27 05:32N 31°20' E 121°39'0 0.0
2015-Aug-27 04:32N 31°20' E 121°39'0 0.0
2015-Aug-27 03:31N 31°20' E 121°39'0 0.0
2015-Aug-27 02:31N 31°20' E 121°39'0 0.0
2015-Aug-27 01:25N 31°20' E 121°39'0 0.0
2015-Aug-27 00:31N 31°20' E 121°39'0 0.0
2015-Aug-26 23:31N 31°20' E 121°39'0 0.0
2015-Aug-26 22:31N 31°20' E 121°39'0 0.0
2015-Aug-26 21:31N 31°20' E 121°39'0 0.0
2015-Aug-26 20:28N 31°20' E 121°39'0 0.0
2015-Aug-26 19:31N 31°20' E 121°39'0 0.0
2015-Aug-26 18:31N 31°20' E 121°39'0 0.0
2015-Aug-26 17:31N 31°20' E 121°39'0 0.0
2015-Aug-26 16:34N 31°20' E 121°39'0 0.0
2015-Aug-26 15:30N 31°20' E 121°39'0 0.0
2015-Aug-26 14:33N 31°20' E 121°39'0 0.0
2015-Aug-26 13:33N 31°20' E 121°39'2 1.6
2015-Aug-26 12:33N 31°20' E 121°41'1010.4
2015-Aug-26 11:33N 31°16' E 121°52'1010.5
2015-Aug-26 10:33N 31°14' E 122°04'9 9.3
2015-Aug-26 09:33N 31°09' E 122°13'10 9.6
2015-Aug-26 08:33N 31°06' E 122°24'11 8.3
2015-Aug-26 07:10N 31°16' E 122°32'4 0.2
2015-Aug-25 06:27N 31°16' E 122°37'  
Track history (hours):
 
Tides and Currents Weather Stations Pressure Air Temp Water Temp Dewpoint Dewpoint Depression Visibility Wind Speed Wind Dir Waves Ship Positions

Chicago Bridge

Last reported at 2015-Aug-30 15:17 UTC. Time now 2015-Aug-30 16:00 UTC.
Position N 24°27' E 118°01'.

Length 279 m; draft 10 m.

Type: Ship (hazmat cat B). MMSI: 352018000.

Date/timePositionNaut miles runAvg speedWind from/ knotsBaromVisibWave heightAir tempDewpointWater temp
2015-Aug-30 15:17N 24°27' E 118°01'0 0.0
2015-Aug-30 10:05N 24°27' E 118°01'0 0.0
2015-Aug-30 06:23N 24°27' E 118°01'0 0.0
2015-Aug-30 03:29N 24°27' E 118°01'0 0.0
2015-Aug-29 21:23N 24°27' E 118°01'0 0.0
2015-Aug-29 12:25N 24°27' E 118°01'9 7.9
2015-Aug-29 11:19N 24°22' E 118°09'912.0
2015-Aug-29 10:31N 24°15' E 118°16'11 9.9
2015-Aug-29 09:25N 24°15' E 118°28'2512.4
2015-Aug-29 07:23N 24°17' E 118°55'44710.2
2015-Aug-27 11:32N 31°20' E 121°39'0 0.0
2015-Aug-27 10:32N 31°20' E 121°39'0 0.0
2015-Aug-27 09:32N 31°20' E 121°39'0 0.0
2015-Aug-27 08:32N 31°20' E 121°39'0 0.0
2015-Aug-27 07:32N 31°20' E 121°39'0 0.0
2015-Aug-27 06:32N 31°20' E 121°39'0 0.0
2015-Aug-27 05:32N 31°20' E 121°39'0 0.0
2015-Aug-27 04:32N 31°20' E 121°39'0 0.0
2015-Aug-27 03:31N 31°20' E 121°39'0 0.0
2015-Aug-27 02:31N 31°20' E 121°39'0 0.0
2015-Aug-27 01:25N 31°20' E 121°39'0 0.0
2015-Aug-27 00:31N 31°20' E 121°39'0 0.0
2015-Aug-26 23:31N 31°20' E 121°39'0 0.0
2015-Aug-26 22:31N 31°20' E 121°39'0 0.0
2015-Aug-26 21:31N 31°20' E 121°39'0 0.0
2015-Aug-26 20:28N 31°20' E 121°39'0 0.0
2015-Aug-26 19:31N 31°20' E 121°39'0 0.0
2015-Aug-26 18:31N 31°20' E 121°39'0 0.0
2015-Aug-26 17:31N 31°20' E 121°39'0 0.0
2015-Aug-26 16:34N 31°20' E 121°39'0 0.0
2015-Aug-26 15:30N 31°20' E 121°39'0 0.0
2015-Aug-26 14:33N 31°20' E 121°39'0 0.0
2015-Aug-26 13:33N 31°20' E 121°39'2 1.6
2015-Aug-26 12:33N 31°20' E 121°41'1010.4
2015-Aug-26 11:33N 31°16' E 121°52'1010.5
2015-Aug-26 10:33N 31°14' E 122°04'9 9.3
2015-Aug-26 09:33N 31°09' E 122°13'10 9.6
2015-Aug-26 08:33N 31°06' E 122°24'11 8.3
2015-Aug-26 07:10N 31°16' E 122°32'4 0.2
2015-Aug-25 06:27N 31°16' E 122°37'  

Dump ship's entire track history